createdAt,value
2018-07-08T00:01:10.075Z,10.40
2018-07-08T00:03:38.287Z,10.50
2018-07-08T00:06:06.507Z,10.73
2018-07-08T00:08:34.692Z,10.20
2018-07-08T00:11:02.874Z,10.27
2018-07-08T00:13:31.046Z,10.63
2018-07-08T00:15:59.227Z,9.60
2018-07-08T00:18:27.404Z,9.60
2018-07-08T00:20:56.328Z,10.20
2018-07-08T00:23:25.051Z,10.50
2018-07-08T00:25:53.236Z,9.60
2018-07-08T00:28:21.606Z,10.20
2018-07-08T00:30:49.802Z,10.33
2018-07-08T00:33:17.962Z,9.57
2018-07-08T00:35:46.377Z,9.80
2018-07-08T00:38:14.547Z,9.90
2018-07-08T00:40:42.718Z,9.53
2018-07-08T00:43:10.907Z,9.97
2018-07-08T00:45:39.085Z,10.00
2018-07-08T00:48:07.286Z,9.50
2018-07-08T00:50:35.450Z,10.23
2018-07-08T00:53:03.658Z,9.47
2018-07-08T00:55:31.835Z,10.00
2018-07-08T00:58:00.019Z,9.70
2018-07-08T01:00:37.194Z,10.43
2018-07-08T01:03:07.559Z,9.73
2018-07-08T01:05:35.917Z,11.00
2018-07-08T01:08:04.587Z,9.90
2018-07-08T01:10:32.815Z,9.40
2018-07-08T01:13:01.751Z,9.70
2018-07-08T01:15:29.947Z,9.90
2018-07-08T01:17:58.155Z,10.30
2018-07-08T01:20:26.358Z,10.37
2018-07-08T01:22:54.751Z,10.20
2018-07-08T01:25:34.112Z,9.93
2018-07-08T01:28:02.286Z,10.40
2018-07-08T01:30:30.474Z,10.40
2018-07-08T01:32:58.655Z,10.00
2018-07-08T01:35:26.831Z,10.33
2018-07-08T01:37:55.019Z,10.40
2018-07-08T01:40:23.210Z,10.80
2018-07-08T01:42:51.398Z,10.43
2018-07-08T01:45:19.574Z,9.73
2018-07-08T01:47:47.746Z,10.23
2018-07-08T01:50:15.939Z,10.10
2018-07-08T01:52:44.122Z,10.07
2018-07-08T01:55:12.318Z,10.67
2018-07-08T01:57:40.525Z,10.43
2018-07-08T02:00:08.706Z,10.17
2018-07-08T02:02:36.907Z,9.93
2018-07-08T02:05:05.115Z,10.60
2018-07-08T02:07:33.279Z,10.87
2018-07-08T02:10:01.471Z,10.10
2018-07-08T02:12:29.639Z,10.97
2018-07-08T02:14:57.826Z,10.97
2018-07-08T02:17:26.027Z,10.23
2018-07-08T02:19:54.195Z,11.70
2018-07-08T02:22:22.392Z,11.10
2018-07-08T02:24:50.588Z,10.57
2018-07-08T02:27:18.774Z,10.77
2018-07-08T02:29:46.951Z,11.40
2018-07-08T02:32:15.135Z,11.47
2018-07-08T02:34:43.662Z,11.50
2018-07-08T02:37:11.919Z,11.03
2018-07-08T02:39:40.074Z,11.20
2018-07-08T02:42:08.263Z,11.23
2018-07-08T02:44:36.432Z,10.67
2018-07-08T02:47:04.935Z,11.37
2018-07-08T02:49:33.211Z,10.97
2018-07-08T02:52:01.424Z,11.00
2018-07-08T02:54:29.587Z,11.27
2018-07-08T02:56:57.776Z,11.50
2018-07-08T02:59:25.943Z,11.70
2018-07-08T03:01:54.124Z,11.20
2018-07-08T03:04:22.299Z,10.80
2018-07-08T03:06:50.460Z,11.07
2018-07-08T03:09:18.650Z,11.47
2018-07-08T03:11:46.827Z,11.60
2018-07-08T03:14:14.996Z,11.43
2018-07-08T03:16:43.165Z,11.80
2018-07-08T03:19:11.354Z,11.67
2018-07-08T03:21:39.534Z,11.43
2018-07-08T03:24:07.695Z,11.37
2018-07-08T03:26:35.874Z,11.00
2018-07-08T03:29:04.051Z,11.33
2018-07-08T03:31:32.219Z,12.07
2018-07-08T03:34:00.374Z,12.10
2018-07-08T03:36:28.567Z,12.03
2018-07-08T03:38:56.730Z,12.03
2018-07-08T03:41:24.903Z,12.20
2018-07-08T03:43:53.353Z,12.23
2018-07-08T03:46:21.518Z,11.60
2018-07-08T03:48:49.698Z,11.60
2018-07-08T03:51:17.881Z,12.17
2018-07-08T03:53:46.315Z,11.57
2018-07-08T03:56:14.480Z,12.40
2018-07-08T03:58:42.675Z,11.83
2018-07-08T04:01:10.866Z,13.20
2018-07-08T04:03:39.066Z,13.17
2018-07-08T04:06:07.253Z,13.00
2018-07-08T04:08:35.443Z,13.10
2018-07-08T04:11:03.646Z,13.37
2018-07-08T04:13:31.864Z,12.47
2018-07-08T04:16:00.079Z,13.73
2018-07-08T04:18:28.242Z,12.50
2018-07-08T04:20:56.410Z,13.20
2018-07-08T04:23:24.574Z,13.30
2018-07-08T04:25:52.731Z,12.97
2018-07-08T04:28:21.040Z,12.40
2018-07-08T04:30:49.191Z,13.60
2018-07-08T04:33:17.358Z,14.10
2018-07-08T04:35:45.523Z,14.57
2018-07-08T04:38:13.710Z,14.10
2018-07-08T04:40:41.886Z,14.50
2018-07-08T04:43:10.071Z,14.70
2018-07-08T04:45:38.238Z,13.10
2018-07-08T04:48:06.414Z,14.20
2018-07-08T04:50:34.592Z,14.87
2018-07-08T04:53:02.790Z,13.60
2018-07-08T04:55:30.961Z,14.53
2018-07-08T04:57:59.135Z,14.00
2018-07-08T05:00:27.306Z,13.90
2018-07-08T05:02:55.471Z,14.50
2018-07-08T05:05:23.878Z,13.90
2018-07-08T05:07:52.099Z,13.63
2018-07-08T05:10:20.259Z,13.70
2018-07-08T05:12:48.448Z,13.23
2018-07-08T05:15:16.607Z,14.23
2018-07-08T05:17:44.774Z,14.50
2018-07-08T05:20:12.947Z,13.70
2018-07-08T05:22:41.170Z,14.93
2018-07-08T05:25:09.339Z,13.97
2018-07-08T05:27:37.510Z,14.83
2018-07-08T05:30:05.704Z,13.73
2018-07-08T05:32:33.878Z,13.90
2018-07-08T05:35:02.075Z,12.97
2018-07-08T05:37:30.257Z,13.57
2018-07-08T05:39:58.433Z,13.27
2018-07-08T05:42:26.594Z,12.87
2018-07-08T05:44:54.758Z,12.93
2018-07-08T05:47:22.955Z,12.87
2018-07-08T05:49:51.130Z,12.77
2018-07-08T05:52:19.375Z,13.87
2018-07-08T05:54:47.594Z,12.30
2018-07-08T05:57:15.779Z,12.80
2018-07-08T05:59:43.951Z,12.23
2018-07-08T06:02:12.570Z,13.90
2018-07-08T06:04:40.791Z,11.90
2018-07-08T06:07:08.902Z,12.63
2018-07-08T06:09:40.027Z,12.20
2018-07-08T06:12:08.443Z,12.50
2018-07-08T06:14:36.627Z,12.70
2018-07-08T06:17:04.791Z,11.60
2018-07-08T06:19:32.982Z,11.70
2018-07-08T06:22:01.179Z,12.30
2018-07-08T06:24:29.374Z,11.80
2018-07-08T06:26:57.579Z,11.07
2018-07-08T06:29:25.768Z,11.80
2018-07-08T06:31:53.950Z,12.00
2018-07-08T06:34:22.223Z,11.40
2018-07-08T06:36:50.412Z,11.30
2018-07-08T06:39:18.727Z,10.70
2018-07-08T06:41:46.811Z,11.53
2018-07-08T06:44:14.979Z,10.90
2018-07-08T06:46:43.151Z,10.70
2018-07-08T06:49:11.335Z,10.30
2018-07-08T06:51:39.519Z,11.23
2018-07-08T06:54:07.694Z,10.20
2018-07-08T06:56:35.858Z,10.70
2018-07-08T06:59:04.048Z,10.33
2018-07-08T07:01:32.217Z,10.43
2018-07-08T07:04:00.387Z,9.67
2018-07-08T07:06:28.567Z,9.73
2018-07-08T07:08:56.739Z,9.93
2018-07-08T07:11:24.902Z,9.20
2018-07-08T07:13:53.078Z,9.50
2018-07-08T07:16:21.255Z,10.00
2018-07-08T07:18:49.453Z,9.30
2018-07-08T07:21:17.684Z,10.03
2018-07-08T07:23:45.866Z,9.27
2018-07-08T07:26:14.218Z,10.23
2018-07-08T07:28:42.531Z,10.60
2018-07-08T07:31:10.714Z,10.70
2018-07-08T07:33:39.032Z,9.80
2018-07-08T07:36:07.199Z,9.73
2018-07-08T07:38:35.380Z,9.70
2018-07-08T07:41:03.542Z,9.70
2018-07-08T07:43:31.855Z,9.10
2018-07-08T07:46:00.027Z,10.07
2018-07-08T07:48:28.198Z,9.27
2018-07-08T07:50:56.457Z,9.63
2018-07-08T07:53:24.690Z,8.40
2018-07-08T07:55:52.923Z,8.27
2018-07-08T07:58:21.252Z,8.87
2018-07-08T08:00:49.431Z,8.93
2018-07-08T08:03:17.599Z,7.80
2018-07-08T08:05:45.763Z,8.63
2018-07-08T08:08:13.958Z,8.70
2018-07-08T08:10:42.154Z,8.37
2018-07-08T08:13:10.307Z,8.90
2018-07-08T08:15:38.486Z,8.43
2018-07-08T08:18:06.651Z,8.60
2018-07-08T08:20:34.828Z,8.30
2018-07-08T08:23:03.041Z,9.30
2018-07-08T08:25:31.199Z,8.53
2018-07-08T08:27:59.464Z,8.27
2018-07-08T08:30:27.675Z,8.30
2018-07-08T08:32:55.861Z,8.60
2018-07-08T08:35:24.015Z,8.17
2018-07-08T08:37:53.184Z,9.07
2018-07-08T08:40:22.576Z,8.10
2018-07-08T08:42:50.858Z,8.10
2018-07-08T08:45:19.946Z,8.60
2018-07-08T08:47:48.122Z,8.30
2018-07-08T08:50:16.503Z,8.10
2018-07-08T08:52:44.671Z,8.00
2018-07-08T08:55:13.259Z,7.90
2018-07-08T08:57:41.434Z,8.70
2018-07-08T09:00:11.051Z,8.60
2018-07-08T09:02:39.314Z,7.40
2018-07-08T09:05:07.595Z,8.50
2018-07-08T09:07:35.774Z,7.40
2018-07-08T09:10:03.957Z,8.03
2018-07-08T09:12:32.118Z,7.50
2018-07-08T09:15:00.315Z,7.83
2018-07-08T09:17:28.487Z,7.40
2018-07-08T09:19:56.638Z,7.67
2018-07-08T09:22:24.826Z,8.30
2018-07-08T09:24:52.990Z,8.43
2018-07-08T09:27:21.162Z,7.53
2018-07-08T09:29:49.458Z,7.77
2018-07-08T09:32:17.626Z,8.03
2018-07-08T09:34:45.794Z,8.23
2018-07-08T09:37:14.170Z,8.07
2018-07-08T09:39:42.486Z,7.83
2018-07-08T09:42:10.656Z,7.73
2018-07-08T09:44:38.872Z,8.43
2018-07-08T09:47:07.222Z,7.80
2018-07-08T09:49:35.395Z,8.47
2018-07-08T09:52:03.641Z,8.93
2018-07-08T09:54:31.932Z,9.00
2018-07-08T09:57:00.251Z,10.60
2018-07-08T09:59:28.438Z,8.37
2018-07-08T10:01:56.658Z,8.83
2018-07-08T10:04:25.324Z,8.27
2018-07-08T10:06:54.216Z,8.30
2018-07-08T10:09:23.588Z,10.37
2018-07-08T10:11:51.846Z,9.43
2018-07-08T10:14:21.375Z,12.00
2018-07-08T10:16:49.612Z,9.53
2018-07-08T10:19:19.170Z,9.27
2018-07-08T10:21:47.467Z,9.63
2018-07-08T10:24:15.963Z,9.17
2018-07-08T10:26:44.151Z,8.43
2018-07-08T10:29:16.418Z,8.40
2018-07-08T10:31:45.722Z,8.90
2018-07-08T10:34:14.083Z,8.60
2018-07-08T10:36:42.480Z,8.57
2018-07-08T10:39:12.115Z,8.27
2018-07-08T10:41:40.631Z,8.87
2018-07-08T10:44:08.971Z,8.37
2018-07-08T10:46:37.186Z,8.47
2018-07-08T10:49:05.499Z,8.87
2018-07-08T10:51:33.862Z,8.57
2018-07-08T10:54:02.043Z,9.30
2018-07-08T10:56:30.199Z,8.63
2018-07-08T10:58:58.382Z,8.73
2018-07-08T11:01:26.571Z,8.73
2018-07-08T11:03:54.878Z,8.63
2018-07-08T11:06:23.049Z,9.07
2018-07-08T11:08:51.611Z,9.37
2018-07-08T11:11:19.899Z,9.27
2018-07-08T11:13:48.083Z,8.27
2018-07-08T11:16:16.274Z,8.70
2018-07-08T11:18:44.438Z,9.10
2018-07-08T11:21:12.789Z,8.97
2018-07-08T11:23:40.954Z,8.60
2018-07-08T11:26:09.125Z,8.00
2018-07-08T11:28:37.379Z,8.77
2018-07-08T11:31:05.485Z,8.40
2018-07-08T11:33:33.654Z,8.47
2018-07-08T11:36:01.820Z,9.63
2018-07-08T11:38:29.990Z,7.93
2018-07-08T11:40:58.174Z,8.50
2018-07-08T11:43:26.314Z,8.73
2018-07-08T11:45:54.491Z,8.83
2018-07-08T11:48:22.655Z,7.87
2018-07-08T11:50:50.846Z,8.07
2018-07-08T11:53:19.007Z,8.40
2018-07-08T11:55:47.171Z,8.70
2018-07-08T11:58:15.347Z,9.33
2018-07-08T12:00:43.550Z,8.67
2018-07-08T12:03:11.708Z,7.90
2018-07-08T12:05:39.886Z,8.43
2018-07-08T12:08:08.098Z,8.77
2018-07-08T12:10:36.273Z,9.37
2018-07-08T12:13:04.458Z,9.97
2018-07-08T12:15:32.634Z,9.23
2018-07-08T12:18:00.815Z,9.37
2018-07-08T12:20:28.987Z,9.13
2018-07-08T12:22:57.150Z,8.87
2018-07-08T12:25:25.535Z,10.00
2018-07-08T12:27:53.711Z,8.77
2018-07-08T12:30:21.894Z,9.40
2018-07-08T12:32:50.102Z,8.73
2018-07-08T12:35:18.266Z,9.40
2018-07-08T12:37:46.430Z,9.20
2018-07-08T12:40:14.590Z,9.00
2018-07-08T12:42:42.840Z,9.83
2018-07-08T12:45:11.019Z,10.10
2018-07-08T12:47:39.210Z,10.20
2018-07-08T12:50:07.383Z,9.80
2018-07-08T12:52:35.710Z,10.03
2018-07-08T12:55:03.926Z,10.00
2018-07-08T12:57:32.097Z,10.03
2018-07-08T13:00:00.298Z,10.47
2018-07-08T13:02:28.466Z,9.53
2018-07-08T13:04:56.638Z,9.73
2018-07-08T13:07:24.809Z,9.33
2018-07-08T13:09:53.018Z,10.87
2018-07-08T13:12:21.178Z,10.30
2018-07-08T13:14:49.378Z,10.03
2018-07-08T13:17:17.551Z,10.50
2018-07-08T13:19:45.732Z,10.70
2018-07-08T13:22:13.903Z,11.43
2018-07-08T13:24:42.083Z,11.40
2018-07-08T13:27:10.248Z,10.40
2018-07-08T13:29:38.414Z,10.07
2018-07-08T13:32:06.875Z,10.70
2018-07-08T13:34:35.019Z,10.03
2018-07-08T13:37:03.199Z,10.53
2018-07-08T13:39:31.379Z,10.40
2018-07-08T13:41:59.570Z,10.77
2018-07-08T13:44:27.743Z,11.00
2018-07-08T13:46:55.926Z,11.23
2018-07-08T13:49:24.131Z,10.40
2018-07-08T13:51:52.314Z,11.80
2018-07-08T13:54:20.478Z,10.50
2018-07-08T13:56:48.666Z,10.40
2018-07-08T13:59:16.855Z,11.03
2018-07-08T14:01:45.060Z,12.50
2018-07-08T14:04:13.315Z,11.50
2018-07-08T14:06:41.970Z,11.00
2018-07-08T14:09:13.304Z,11.43
2018-07-08T14:11:41.619Z,10.87
2018-07-08T14:14:09.959Z,10.20
2018-07-08T14:16:38.434Z,11.40
2018-07-08T14:19:07.111Z,12.53
2018-07-08T14:21:35.662Z,11.43
2018-07-08T14:24:04.141Z,12.13
2018-07-08T14:26:32.615Z,11.00
2018-07-08T14:29:01.419Z,10.40
2018-07-08T14:31:29.718Z,10.03
2018-07-08T14:33:58.106Z,10.00
2018-07-08T14:36:26.418Z,9.93
2018-07-08T14:38:54.881Z,10.77
2018-07-08T14:41:23.526Z,11.40
2018-07-08T14:43:51.867Z,12.43
2018-07-08T14:46:20.223Z,12.70
2018-07-08T14:48:48.509Z,10.77
2018-07-08T14:51:16.886Z,11.30
2018-07-08T14:53:45.715Z,10.47
2018-07-08T14:56:14.298Z,10.23
2018-07-08T14:58:42.630Z,10.50
2018-07-08T15:01:11.206Z,10.47
2018-07-08T15:03:39.639Z,10.70
2018-07-08T15:06:08.003Z,10.77
2018-07-08T15:08:36.894Z,10.80
2018-07-08T15:11:05.475Z,11.17
2018-07-08T15:13:34.062Z,10.40
2018-07-08T15:16:02.751Z,11.33
2018-07-08T15:18:31.165Z,11.20
2018-07-08T15:20:59.461Z,17.00
2018-07-08T15:23:27.836Z,13.20
2018-07-08T15:25:58.192Z,10.30
2018-07-08T15:28:26.684Z,10.80
2018-07-08T15:30:55.003Z,10.40
2018-07-08T15:33:23.493Z,13.27
2018-07-08T15:35:52.146Z,10.50
2018-07-08T15:38:20.298Z,14.40
2018-07-08T15:40:48.847Z,11.53
2018-07-08T15:43:17.875Z,12.53
2018-07-08T15:45:46.060Z,10.90
2018-07-08T15:48:14.287Z,10.63
2018-07-08T15:50:42.502Z,10.53
2018-07-08T15:53:10.697Z,11.43
2018-07-08T15:55:38.890Z,10.80
2018-07-08T15:58:07.093Z,10.80
2018-07-08T16:00:35.306Z,10.20
2018-07-08T16:03:03.502Z,9.77
2018-07-08T16:05:31.679Z,10.67
2018-07-08T16:08:00.294Z,10.37
2018-07-08T16:10:28.506Z,11.33
2018-07-08T16:12:56.776Z,10.73
2018-07-08T16:15:24.959Z,9.90
2018-07-08T16:17:53.470Z,10.47
2018-07-08T16:20:21.651Z,11.50
2018-07-08T16:22:49.852Z,10.70
2018-07-08T16:25:18.040Z,10.40
2018-07-08T16:27:46.232Z,13.73
2018-07-08T16:30:14.483Z,10.40
2018-07-08T16:32:42.654Z,14.43
2018-07-08T16:35:10.830Z,12.90
2018-07-08T16:37:39.031Z,9.37
2018-07-08T16:40:07.209Z,8.37
2018-07-08T16:42:35.403Z,9.27
2018-07-08T16:45:03.603Z,8.90
2018-07-08T16:47:31.778Z,8.47
2018-07-08T16:49:59.943Z,8.93
2018-07-08T16:52:28.122Z,8.73
2018-07-08T16:54:56.302Z,9.30
2018-07-08T16:57:24.490Z,9.37
2018-07-08T16:59:52.679Z,8.80
2018-07-08T17:02:20.918Z,9.77
2018-07-08T17:04:49.076Z,9.07
2018-07-08T17:07:17.432Z,8.47
2018-07-08T17:09:45.811Z,10.03
2018-07-08T17:12:14.117Z,9.27
2018-07-08T17:14:42.503Z,9.43
2018-07-08T17:17:10.985Z,9.40
2018-07-08T17:19:39.263Z,9.10
2018-07-08T17:22:08.254Z,8.87
2018-07-08T17:24:37.899Z,9.57
2018-07-08T17:27:06.516Z,9.60
2018-07-08T17:29:35.151Z,9.73
2018-07-08T17:32:03.671Z,9.40
2018-07-08T17:34:32.255Z,9.03
2018-07-08T17:37:00.463Z,9.40
2018-07-08T17:39:28.935Z,9.10
2018-07-08T17:41:57.250Z,10.10
2018-07-08T17:44:25.668Z,9.53
2018-07-08T17:46:54.310Z,9.60
2018-07-08T17:49:22.489Z,9.50
2018-07-08T17:51:51.158Z,9.83
2018-07-08T17:54:20.703Z,10.13
2018-07-08T17:56:48.883Z,9.53
2018-07-08T17:59:17.203Z,9.10
2018-07-08T18:01:45.387Z,9.67
2018-07-08T18:04:13.592Z,10.00
2018-07-08T18:06:41.783Z,9.57
2018-07-08T18:09:09.967Z,10.30
2018-07-08T18:11:38.163Z,11.13
2018-07-08T18:14:06.694Z,10.33
2018-07-08T18:16:34.823Z,10.43
2018-07-08T18:19:03.042Z,9.03
2018-07-08T18:21:31.251Z,11.33
2018-07-08T18:23:59.567Z,9.87
2018-07-08T18:26:27.747Z,9.73
2018-07-08T18:28:55.930Z,9.37
2018-07-08T18:31:24.149Z,9.70
2018-07-08T18:33:52.343Z,9.70
2018-07-08T18:36:20.585Z,8.50
2018-07-08T18:38:48.786Z,9.03
2018-07-08T18:41:16.955Z,8.77
2018-07-08T18:43:45.120Z,8.47
2018-07-08T18:46:13.463Z,8.77
2018-07-08T18:48:41.611Z,9.20
2018-07-08T18:51:09.807Z,9.87
2018-07-08T18:53:37.979Z,9.97
2018-07-08T18:56:06.209Z,9.23
2018-07-08T18:58:34.546Z,9.63
2018-07-08T19:01:02.791Z,10.00
2018-07-08T19:03:31.077Z,9.80
2018-07-08T19:05:59.768Z,9.97
2018-07-08T19:08:27.988Z,9.50
2018-07-08T19:10:56.191Z,9.53
2018-07-08T19:13:24.363Z,9.13
2018-07-08T19:15:52.547Z,12.20
2018-07-08T19:18:20.735Z,9.87
2018-07-08T19:20:48.919Z,11.13
2018-07-08T19:23:17.105Z,9.73
2018-07-08T19:25:45.318Z,10.83
2018-07-08T19:28:13.500Z,10.43
2018-07-08T19:30:41.702Z,10.27
2018-07-08T19:33:10.153Z,10.03
2018-07-08T19:35:38.352Z,10.30
2018-07-08T19:38:06.535Z,9.93
2018-07-08T19:40:34.740Z,10.00
2018-07-08T19:43:02.995Z,10.00
2018-07-08T19:45:31.263Z,9.30
2018-07-08T19:47:59.619Z,9.63
2018-07-08T19:50:27.804Z,9.90
2018-07-08T19:52:56.015Z,9.97
2018-07-08T19:55:24.679Z,10.70
2018-07-08T19:57:53.083Z,9.83
2018-07-08T20:00:21.270Z,10.10
2018-07-08T20:02:49.465Z,10.00
2018-07-08T20:05:17.658Z,11.07
2018-07-08T20:07:45.890Z,9.70
2018-07-08T20:10:14.050Z,10.27
2018-07-08T20:12:42.274Z,10.40
2018-07-08T20:15:10.451Z,9.80
2018-07-08T20:17:38.672Z,10.63
2018-07-08T20:20:08.123Z,9.23
2018-07-08T20:22:36.299Z,9.73
2018-07-08T20:25:04.517Z,9.80
2018-07-08T20:27:32.682Z,10.10
2018-07-08T20:30:00.906Z,9.87
2018-07-08T20:32:29.107Z,9.70
2018-07-08T20:34:57.479Z,9.83
2018-07-08T20:37:25.661Z,10.67
2018-07-08T20:39:53.837Z,10.13
2018-07-08T20:42:22.039Z,10.27
2018-07-08T20:44:50.224Z,10.60
2018-07-08T20:47:18.406Z,10.87
2018-07-08T20:49:46.951Z,9.33
2018-07-08T20:52:15.171Z,10.00
2018-07-08T20:54:43.386Z,10.13
2018-07-08T20:57:11.562Z,9.73
2018-07-08T20:59:39.739Z,9.57
2018-07-08T21:02:07.899Z,9.20
2018-07-08T21:04:36.083Z,9.70
2018-07-08T21:07:04.320Z,10.10
2018-07-08T21:09:32.570Z,9.20
2018-07-08T21:12:00.783Z,10.00
2018-07-08T21:14:28.955Z,9.90
2018-07-08T21:16:57.127Z,9.53
2018-07-08T21:19:25.315Z,9.73
2018-07-08T21:21:53.462Z,9.93
2018-07-08T21:24:21.651Z,9.43
2018-07-08T21:26:49.807Z,9.83
2018-07-08T21:29:18.071Z,9.63
2018-07-08T21:31:46.260Z,11.63
2018-07-08T21:34:14.446Z,9.43
2018-07-08T21:36:42.641Z,10.10
2018-07-08T21:39:11.435Z,10.47
2018-07-08T21:41:40.427Z,10.73
2018-07-08T21:44:08.856Z,10.47
2018-07-08T21:46:37.022Z,9.43
2018-07-08T21:49:05.375Z,8.80
2018-07-08T21:51:33.554Z,9.33
2018-07-08T21:54:01.727Z,9.30
2018-07-08T21:56:29.915Z,8.57
2018-07-08T21:58:58.091Z,8.57
2018-07-08T22:01:28.376Z,9.60
2018-07-08T22:03:56.535Z,9.53
2018-07-08T22:06:24.729Z,10.30
2018-07-08T22:08:52.895Z,9.03
2018-07-08T22:11:21.055Z,8.80
2018-07-08T22:13:49.227Z,8.97
2018-07-08T22:16:17.395Z,9.87
2018-07-08T22:18:45.590Z,10.40
2018-07-08T22:21:13.766Z,9.37
2018-07-08T22:23:41.927Z,9.10
2018-07-08T22:26:10.095Z,9.27
2018-07-08T22:28:38.282Z,10.17
2018-07-08T22:31:06.454Z,9.50
2018-07-08T22:33:34.611Z,8.80
2018-07-08T22:36:02.778Z,9.43
2018-07-08T22:38:30.955Z,8.80
2018-07-08T22:40:59.154Z,8.90
2018-07-08T22:43:27.346Z,9.47
2018-07-08T22:45:55.502Z,10.43
2018-07-08T22:48:23.953Z,9.73
2018-07-08T22:50:52.119Z,9.20
2018-07-08T22:53:20.270Z,9.27
2018-07-08T22:55:48.686Z,9.80
2018-07-08T22:58:16.860Z,9.70
2018-07-08T23:00:56.200Z,9.60
2018-07-08T23:03:56.783Z,10.10
2018-07-08T23:06:24.962Z,9.90
2018-07-08T23:08:53.627Z,11.60
2018-07-08T23:11:22.415Z,9.30
2018-07-08T23:13:51.519Z,9.37
2018-07-08T23:16:20.094Z,9.53
2018-07-08T23:18:48.279Z,8.90
2018-07-08T23:21:16.451Z,8.83
2018-07-08T23:23:44.665Z,9.20
2018-07-08T23:26:12.834Z,9.43
2018-07-08T23:28:41.011Z,9.40
2018-07-08T23:31:09.760Z,9.00
2018-07-08T23:33:37.923Z,8.97
2018-07-08T23:36:06.727Z,9.70
2018-07-08T23:38:35.098Z,8.90
2018-07-08T23:41:04.087Z,9.90
2018-07-08T23:43:32.283Z,9.37
2018-07-08T23:46:01.232Z,9.67
2018-07-08T23:48:29.455Z,9.20
2018-07-08T23:50:57.806Z,9.00
2018-07-08T23:53:26.088Z,10.17
2018-07-08T23:55:54.311Z,10.03
2018-07-08T23:58:22.498Z,10.23
